Historique des mesures à Cassis (13260), France
Quotidien Résumé Mars 25, 2017 Unités:  US    Métrique   Métrique/US
« Précédent (Jour)
Suivant (Jour) »
Quotidien Hebdomadaire Mensuel Annuel Période au choix
  Maximum: Minimum: Moyenne:
Température: 32 °F 52.5 °F 56.3 °F
Point de rosée: 32 °F 44.8 °F 47.5 °F
Humidité: Humidity % 59 % 69 %
Vitesse du vent: WindSpeedKMH mph 0.0 mph 5.2 mph
Rafales: WindSpeedGustKMH mph - -
Vent:- - SE
Pression: 0 in 29.8 in -
Précipitations: 314.96 in    
Historical Graphs
 
 
Mesures pour : Mars 25, 2017
Heure Temperature Point de rosée Pression Vent Vitesse du vent Rafales Humidité Pluie (par heure) Conditions
32 °F 32 °F 0 in Calm     Humidity % 0 in SoftwareType W/m2
00:11 62.4 °F 47.8 °F 29.9 in ESE 6.1 mph 14.3 mph 59 % 0 in open2300-1.11 W/m2
01:10 62.2 °F 47.8 °F 29.9 in ESE 12.2 mph 12.2 mph 59 % 0 in open2300-1.11 W/m2
02:11 61.9 °F 47.5 °F 29.9 in SSE 15.1 mph 15.1 mph 59 % 0 in open2300-1.11 W/m2
03:10 61.7 °F 47.3 °F 29.9 in SE 4.7 mph 13.7 mph 59 % 0 in open2300-1.11 W/m2
04:11 61.3 °F 46.9 °F 29.9 in East 6.1 mph 6.8 mph 59 % 0 in open2300-1.11 W/m2
05:10 61.2 °F 46.8 °F 29.8 in SE 14.8 mph 14.8 mph 59 % 0 in open2300-1.11 W/m2
06:11 61.2 °F 46.8 °F 29.8 in SE 18.7 mph 18.7 mph 59 % 0 in open2300-1.11 W/m2
07:10 61.5 °F 47.7 °F 29.9 in South 8.7 mph 9.7 mph 60 % 0 in open2300-1.11 W/m2
08:11 59.2 °F 50.2 °F 29.9 in SSE 14.8 mph 14.8 mph 72 % 0 in open2300-1.11 W/m2
09:10 56.5 °F 50.7 °F 29.9 in SE 5.5 mph 5.8 mph 81 % 142.24 in open2300-1.11 W/m2
10:11 55.6 °F 50.4 °F 30 in South 4.7 mph 4.7 mph 83 % 142.24 in open2300-1.11 W/m2
11:10 54.9 °F 49.8 °F 30 in SSW 7.2 mph 10.1 mph 83 % 25.4 in open2300-1.11 W/m2
12:11 54.7 °F 49.3 °F 30 in Calm   9.3 mph 82 % 0 in open2300-1.11 W/m2
13:10 55.2 °F 49.5 °F 30 in Calm   1.4 mph 81 % 0 in open2300-1.11 W/m2
14:11 55.9 °F 49.8 °F 30 in Calm     80 % 0 in open2300-1.11 W/m2
15:10 56.3 °F 49.5 °F 30 in Calm     78 % 0 in open2300-1.11 W/m2
16:11 55.9 °F 48.7 °F 30 in Calm     77 % 0 in open2300-1.11 W/m2
18:11 56.3 °F 49.1 °F 30 in Calm     77 % 0 in open2300-1.11 W/m2
19:10 55.2 °F 48 °F 30 in East 1.4 mph 1.4 mph 77 % 0 in open2300-1.11 W/m2
20:11 53.8 °F 46.8 °F 30 in Calm     77 % 0 in open2300-1.11 W/m2
21:10 52.5 °F 45.9 °F 30 in Calm   2.1 mph 78 % 0 in open2300-1.11 W/m2
22:11 52.5 °F 44.8 °F 30 in Calm   1.1 mph 75 % 0 in open2300-1.11 W/m2
23:10 52.5 °F 44.8 °F 30 in ENE 4.0 mph 4.0 mph 75 % 0 in open2300-1.11 W/m2
Observations météo à CASSIS
WU-History script by Weather Underground - 1 mb